Time;durP1;ratioP1;P1;durP2;ratioP2;P2;SDS_P1;SDS_P2;PMS_P1;PMS_P2;Temp;Humidity;BMP_temperature;BMP_pressure;BME280_temperature;BME280_humidity;BME280_pressure;Samples;Min_cycle;Max_cycle;Signal;HPM_P1;HPM_P2
2021/10/29 00:01:46;;;;;;;0.90;0.90;;;18.70;74.30;;;;;;5034876;28;20021;-68
2021/10/29 00:04:12;;;;;;;0.93;0.90;;;18.70;74.40;;;;;;5034929;28;20029;-68
2021/10/29 00:06:37;;;;;;;1.20;1.10;;;18.70;74.30;;;;;;5036882;28;20053;-69
2021/10/29 00:09:03;;;;;;;0.90;0.90;;;18.70;74.30;;;;;;5036876;28;20071;-68
2021/10/29 00:11:29;;;;;;;0.80;0.80;;;18.70;74.30;;;;;;5053671;28;20028;-68
2021/10/29 00:13:55;;;;;;;1.20;1.10;;;18.70;74.40;;;;;;5054651;28;20021;-68
2021/10/29 00:16:20;;;;;;;1.20;1.10;;;18.70;74.40;;;;;;5054614;28;20017;-68
2021/10/29 00:18:46;;;;;;;1.00;0.90;;;18.70;74.30;;;;;;5053444;28;20049;-68
2021/10/29 00:21:12;;;;;;;1.10;0.88;;;18.70;74.30;;;;;;5052913;28;20043;-68
2021/10/29 00:23:37;;;;;;;1.20;0.90;;;18.70;74.60;;;;;;5053404;28;20025;-68
2021/10/29 00:26:03;;;;;;;1.35;0.82;;;18.70;74.40;;;;;;5053385;28;20025;-68
2021/10/29 00:28:28;;;;;;;1.42;1.00;;;18.70;74.40;;;;;;5054270;28;20025;-68
2021/10/29 00:30:54;;;;;;;1.38;1.00;;;18.70;74.40;;;;;;5054278;28;20021;-68
2021/10/29 00:33:20;;;;;;;1.27;1.02;;;18.70;74.50;;;;;;5053165;28;20025;-69
2021/10/29 00:35:46;;;;;;;1.65;1.00;;;18.70;74.40;;;;;;5052832;28;20413;-69
2021/10/29 00:38:11;;;;;;;1.17;1.00;;;18.70;74.40;;;;;;5053174;28;20020;-68
2021/10/29 00:40:39;;;;;;;0.88;0.88;;;18.70;74.40;;;;;;5052979;28;20406;-68
2021/10/29 00:43:06;;;;;;;1.95;0.90;;;18.70;74.50;;;;;;5052998;28;20156;-68
2021/10/29 00:45:33;;;;;;;2.10;0.95;;;18.70;74.50;;;;;;5053994;28;20017;-68
2021/10/29 00:47:58;;;;;;;2.08;1.20;;;18.70;74.50;;;;;;5053996;28;20468;-68
2021/10/29 00:50:24;;;;;;;1.30;1.15;;;18.70;74.50;;;;;;5035799;28;20151;-68
2021/10/29 00:52:50;;;;;;;1.02;0.80;;;18.70;74.50;;;;;;5054015;28;20048;-68
2021/10/29 00:55:15;;;;;;;1.77;0.90;;;18.70;74.50;;;;;;5052126;28;20059;-68
2021/10/29 00:57:41;;;;;;;1.00;1.00;;;18.70;74.50;;;;;;5046876;28;20025;-68
2021/10/29 01:00:08;;;;;;;1.77;1.02;;;18.70;74.50;;;;;;5034796;28;20140;-68
2021/10/29 01:02:34;;;;;;;1.02;0.85;;;18.70;74.50;;;;;;5043927;28;20021;-68
2021/10/29 01:05:02;;;;;;;0.85;0.85;;;18.70;74.60;;;;;;5050776;28;20106;-68
2021/10/29 01:07:28;;;;;;;1.08;0.88;;;18.70;74.60;;;;;;5050736;28;20044;-68
2021/10/29 01:09:54;;;;;;;0.82;0.75;;;18.80;74.60;;;;;;5051783;28;20035;-68
2021/10/29 01:12:19;;;;;;;0.85;0.85;;;18.70;74.60;;;;;;5052774;28;20094;-68
2021/10/29 01:14:55;;;;;;;0.93;0.77;;;18.80;74.60;;;;;;5052915;28;20029;-68
2021/10/29 01:17:21;;;;;;;1.48;0.93;;;18.80;74.70;;;;;;5052023;28;20032;-68
2021/10/29 01:19:47;;;;;;;1.20;1.10;;;18.80;74.70;;;;;;5035695;28;20029;-68
2021/10/29 01:22:13;;;;;;;1.55;0.80;;;18.80;74.70;;;;;;5034929;28;20025;-68
2021/10/29 01:24:38;;;;;;;1.85;1.20;;;18.80;74.70;;;;;;5053100;28;20024;-68
2021/10/29 01:27:11;;;;;;;1.45;1.10;;;18.70;74.70;;;;;;5053080;28;20036;-68
2021/10/29 01:29:37;;;;;;;;;;;18.80;74.70;;;;;;5052327;28;20072;-73
2021/10/29 01:32:03;;;;;;;1.00;0.90;;;18.70;74.80;;;;;;5042243;28;19944;-72
2021/10/29 01:34:29;;;;;;;1.40;0.90;;;18.70;74.90;;;;;;5033319;28;20437;-72
2021/10/29 01:36:55;;;;;;;1.00;1.00;;;18.70;74.90;;;;;;5049376;28;20071;-72
2021/10/29 01:39:20;;;;;;;1.42;1.00;;;18.70;74.90;;;;;;5037531;28;20510;-72
2021/10/29 01:41:46;;;;;;;4.43;1.27;;;18.70;74.80;;;;;;5041657;28;20036;-72
2021/10/29 01:44:13;;;;;;;3.05;1.10;;;18.80;74.90;;;;;;5033526;28;20487;-72
2021/10/29 01:46:40;;;;;;;3.38;0.82;;;18.80;74.90;;;;;;5034422;28;20322;-72
2021/10/29 01:49:05;;;;;;;0.80;0.68;;;18.80;74.90;;;;;;5048282;28;20032;-72
2021/10/29 01:51:31;;;;;;;1.35;1.00;;;18.80;74.90;;;;;;5034914;28;20411;-72
2021/10/29 01:53:58;;;;;;;1.00;0.90;;;18.80;74.90;;;;;;5040092;28;20018;-72
2021/10/29 01:56:24;;;;;;;0.85;0.82;;;18.80;74.90;;;;;;5064070;28;20435;-72
2021/10/29 01:58:49;;;;;;;1.20;1.10;;;18.80;74.80;;;;;;5054853;28;20016;-72
2021/10/29 02:01:15;;;;;;;2.00;1.00;;;18.80;74.90;;;;;;5065246;28;20436;-72
2021/10/29 02:03:41;;;;;;;1.25;1.02;;;18.80;74.90;;;;;;5061586;28;20439;-72
2021/10/29 02:06:07;;;;;;;1.65;1.15;;;18.80;74.90;;;;;;5057854;28;20413;-72
2021/10/29 02:08:33;;;;;;;1.33;1.23;;;18.80;74.90;;;;;;5067149;28;20032;-72
2021/10/29 02:10:58;;;;;;;1.48;0.93;;;18.80;74.90;;;;;;5055379;28;20016;-72
2021/10/29 02:13:24;;;;;;;0.80;0.80;;;18.80;74.90;;;;;;5046821;28;20553;-72
2021/10/29 02:15:50;;;;;;;0.82;0.80;;;18.80;74.90;;;;;;5045546;28;20024;-72
2021/10/29 02:18:16;;;;;;;1.45;0.80;;;18.80;74.90;;;;;;5056035;28;20021;-72
2021/10/29 02:20:42;;;;;;;1.45;1.15;;;18.80;74.90;;;;;;5032586;28;20367;-72
2021/10/29 02:23:07;;;;;;;1.10;1.00;;;18.80;74.90;;;;;;5031861;28;20018;-72
2021/10/29 02:25:33;;;;;;;0.82;0.82;;;18.80;74.90;;;;;;5045171;28;20047;-72
2021/10/29 02:27:59;;;;;;;0.93;0.90;;;18.80;74.90;;;;;;5054825;28;20394;-72
2021/10/29 02:30:24;;;;;;;0.98;0.88;;;18.80;75.00;;;;;;5031257;28;20033;-72
2021/10/29 02:32:50;;;;;;;1.73;1.02;;;18.80;74.90;;;;;;5047717;28;20100;-72
2021/10/29 02:35:15;;;;;;;1.10;1.00;;;18.80;74.90;;;;;;5031376;28;20022;-72
2021/10/29 02:37:41;;;;;;;1.50;0.90;;;18.80;75.00;;;;;;5031862;28;20079;-72
2021/10/29 02:40:07;;;;;;;1.20;0.93;;;18.80;75.00;;;;;;5031135;28;20493;-72
2021/10/29 02:42:33;;;;;;;1.25;1.00;;;18.80;75.00;;;;;;5064114;28;20022;-72
2021/10/29 02:44:58;;;;;;;2.35;0.98;;;18.80;74.90;;;;;;5047166;28;20018;-72
2021/10/29 02:47:24;;;;;;;0.70;0.70;;;18.80;74.90;;;;;;5030826;28;20033;-72
2021/10/29 02:49:50;;;;;;;1.10;0.95;;;18.80;75.00;;;;;;5030608;28;20029;-72
2021/10/29 02:52:15;;;;;;;1.00;1.00;;;18.80;75.00;;;;;;5032319;28;20494;-73
2021/10/29 02:54:41;;;;;;;2.10;1.10;;;18.80;75.00;;;;;;5047481;28;20041;-72
2021/10/29 02:57:07;;;;;;;1.15;1.02;;;18.80;75.00;;;;;;5030926;28;20364;-72
2021/10/29 02:59:32;;;;;;;0.65;0.65;;;18.80;75.00;;;;;;5031682;28;20030;-72
2021/10/29 03:01:58;;;;;;;1.13;0.90;;;18.80;75.00;;;;;;5046414;28;20022;-72
2021/10/29 03:04:23;;;;;;;1.02;0.90;;;18.80;75.00;;;;;;5032188;28;20049;-72
2021/10/29 03:06:49;;;;;;;1.20;0.77;;;18.80;75.00;;;;;;5036042;28;20666;-72
2021/10/29 03:09:14;;;;;;;0.85;0.82;;;18.80;75.00;;;;;;5051817;28;20029;-72
2021/10/29 03:11:40;;;;;;;0.82;0.80;;;18.80;75.00;;;;;;5034008;28;20017;-72
2021/10/29 03:14:06;;;;;;;1.15;0.90;;;18.80;75.00;;;;;;5051779;28;20029;-72
2021/10/29 03:16:31;;;;;;;1.02;0.90;;;18.80;75.00;;;;;;5051823;28;20403;-72
2021/10/29 03:18:57;;;;;;;1.25;1.00;;;18.80;75.00;;;;;;5053333;28;20036;-72
2021/10/29 03:21:22;;;;;;;1.15;0.90;;;18.80;75.00;;;;;;5054407;28;20087;-72
2021/10/29 03:23:48;;;;;;;0.68;0.63;;;18.80;75.00;;;;;;5055494;28;20032;-72
2021/10/29 03:26:14;;;;;;;0.90;0.90;;;18.80;75.00;;;;;;5055604;28;20029;-72
2021/10/29 03:28:39;;;;;;;0.77;0.77;;;18.80;75.00;;;;;;5055171;28;20039;-72
2021/10/29 03:31:05;;;;;;;0.60;0.60;;;18.80;75.00;;;;;;5054325;28;20014;-72
2021/10/29 03:33:36;;;;;;;0.82;0.82;;;18.80;75.00;;;;;;5055358;28;20096;-72
2021/10/29 03:36:01;;;;;;;1.25;0.85;;;18.80;75.00;;;;;;5054325;28;20017;-72
2021/10/29 03:41:13;;;;;;;1.08;0.60;;;18.80;75.00;;;;;;5054563;28;20573;-72
2021/10/29 03:43:51;;;;;;;0.65;0.65;;;18.80;75.00;;;;;;5053743;28;20032;-72
2021/10/29 03:46:22;;;;;;;2.20;0.80;;;18.70;75.00;;;;;;5055262;28;20028;-72
2021/10/29 03:54:25;;;;;;;0.80;0.80;;;18.70;75.00;;;;;;5054121;28;20450;-72
2021/10/29 03:56:29;;;;;;;0.80;0.80;;;18.80;75.00;;;;;;5045850;28;20037;-72
2021/10/29 03:58:56;;;;;;;0.95;0.82;;;18.70;75.10;;;;;;5053305;28;20116;-72
2021/10/29 04:01:21;;;;;;;3.25;1.40;;;18.70;75.10;;;;;;5054986;28;20025;-72
2021/10/29 04:03:47;;;;;;;1.63;0.90;;;18.80;75.10;;;;;;5053675;28;20555;-72
2021/10/29 04:06:13;;;;;;;1.77;0.93;;;18.80;75.10;;;;;;5053598;28;20119;-72
2021/10/29 04:08:39;;;;;;;1.33;0.85;;;18.80;75.10;;;;;;5053439;28;20183;-72
2021/10/29 04:11:06;;;;;;;0.82;0.73;;;18.80;75.10;;;;;;5054765;28;20505;-72
2021/10/29 04:13:36;;;;;;;1.33;0.90;;;18.80;75.10;;;;;;5053296;28;20402;-72
2021/10/29 04:16:02;;;;;;;1.20;0.80;;;18.70;75.00;;;;;;5054755;28;20025;-72
2021/10/29 04:18:28;;;;;;;1.38;0.90;;;18.70;75.00;;;;;;5053536;28;20029;-72
2021/10/29 04:20:54;;;;;;;0.82;0.70;;;18.70;75.00;;;;;;5053361;28;20071;-72
2021/10/29 04:23:20;;;;;;;1.48;0.93;;;18.80;75.00;;;;;;5036881;28;20406;-72
2021/10/29 04:25:45;;;;;;;0.90;0.90;;;18.70;75.00;;;;;;5054424;28;20021;-72
2021/10/29 04:28:12;;;;;;;1.05;0.98;;;18.70;75.00;;;;;;5052984;28;20040;-72
2021/10/29 04:30:38;;;;;;;1.30;0.93;;;18.70;75.10;;;;;;5053793;28;20032;-72
2021/10/29 04:33:07;;;;;;;0.93;0.90;;;18.70;75.10;;;;;;5052976;28;20079;-72
2021/10/29 04:35:34;;;;;;;1.05;0.90;;;18.70;75.10;;;;;;5053170;28;20017;-72
2021/10/29 04:38:00;;;;;;;1.30;0.80;;;18.70;75.10;;;;;;5052997;28;20021;-72
2021/10/29 04:40:26;;;;;;;2.13;0.80;;;18.80;75.00;;;;;;5052740;28;20036;-72
2021/10/29 04:42:52;;;;;;;1.17;0.93;;;18.80;75.00;;;;;;5053034;28;20482;-72
2021/10/29 04:45:18;;;;;;;0.70;0.70;;;18.70;75.10;;;;;;5053219;28;20029;-72
2021/10/29 04:47:43;;;;;;;1.42;0.80;;;18.80;75.10;;;;;;5054000;28;20052;-72
2021/10/29 04:50:09;;;;;;;1.88;0.75;;;18.70;75.10;;;;;;5052918;28;20442;-73
2021/10/29 04:52:35;;;;;;;1.05;0.70;;;18.70;75.10;;;;;;5052762;28;20163;-72
2021/10/29 04:55:00;;;;;;;1.65;1.02;;;18.70;75.00;;;;;;5053572;28;20032;-72
2021/10/29 04:57:26;;;;;;;1.23;0.70;;;18.70;75.10;;;;;;5052887;28;20363;-72
2021/10/29 04:59:52;;;;;;;0.65;0.65;;;18.70;75.10;;;;;;5052808;28;20036;-72
2021/10/29 05:02:17;;;;;;;1.00;0.90;;;18.70;75.10;;;;;;5052517;28;20029;-72
2021/10/29 05:04:43;;;;;;;0.95;0.77;;;18.70;75.10;;;;;;5052633;28;20025;-72
2021/10/29 05:07:09;;;;;;;1.23;0.80;;;18.70;75.10;;;;;;5053356;28;20047;-72
2021/10/29 05:09:34;;;;;;;1.65;0.70;;;18.70;75.10;;;;;;5053228;28;20029;-72
2021/10/29 05:12:00;;;;;;;1.05;0.90;;;18.70;75.10;;;;;;5052323;28;20475;-72
2021/10/29 05:14:25;;;;;;;1.05;0.82;;;18.70;75.10;;;;;;5052474;28;20057;-72
2021/10/29 05:16:51;;;;;;;1.02;0.80;;;18.70;75.10;;;;;;5053568;28;20198;-72
2021/10/29 05:19:17;;;;;;;0.75;0.75;;;18.70;75.10;;;;;;5053521;28;20052;-72
2021/10/29 05:21:43;;;;;;;1.35;0.90;;;18.70;75.20;;;;;;5052194;28;20040;-72
2021/10/29 05:24:09;;;;;;;0.77;0.73;;;18.70;75.10;;;;;;5053077;28;20067;-72
2021/10/29 05:26:35;;;;;;;1.15;0.85;;;18.70;75.10;;;;;;5052022;28;20053;-72
2021/10/29 05:29:00;;;;;;;1.08;0.90;;;18.70;75.10;;;;;;5053165;28;20436;-72
2021/10/29 05:31:27;;;;;;;1.05;0.73;;;18.70;75.10;;;;;;5051987;28;20044;-72
2021/10/29 05:33:52;;;;;;;1.30;0.80;;;18.70;75.20;;;;;;5053033;28;20028;-72
2021/10/29 05:36:18;;;;;;;1.30;0.80;;;18.70;75.10;;;;;;5053097;28;20074;-72
2021/10/29 05:38:43;;;;;;;0.88;0.70;;;18.70;75.20;;;;;;5053140;28;20033;-72
2021/10/29 05:41:11;;;;;;;1.75;0.68;;;18.70;75.20;;;;;;5052023;28;20059;-72
2021/10/29 05:43:37;;;;;;;0.75;0.75;;;18.70;75.20;;;;;;5037295;28;20025;-72
2021/10/29 05:46:03;;;;;;;1.17;0.82;;;18.70;75.20;;;;;;5048509;28;20026;-72
2021/10/29 05:48:29;;;;;;;2.55;0.80;;;18.70;75.20;;;;;;5051935;28;20029;-72
2021/10/29 05:50:55;;;;;;;1.23;0.80;;;18.70;75.20;;;;;;5034357;28;20036;-72
2021/10/29 05:53:36;;;;;;;2.08;0.90;;;18.70;75.20;;;;;;5031086;28;20021;-72
2021/10/29 05:56:03;;;;;;;2.03;0.80;;;18.70;75.20;;;;;;5046265;28;20051;-72
2021/10/29 05:58:29;;;;;;;1.23;0.80;;;18.70;75.20;;;;;;5048389;28;20014;-72
2021/10/29 06:00:54;;;;;;;1.10;0.85;;;18.70;75.20;;;;;;5065686;28;20031;-72
2021/10/29 06:03:20;;;;;;;0.90;0.90;;;18.70;75.20;;;;;;5054962;28;20091;-72
2021/10/29 06:05:46;;;;;;;0.88;0.75;;;18.70;75.20;;;;;;5063996;28;20074;-72
2021/10/29 06:08:11;;;;;;;1.08;0.80;;;18.70;75.20;;;;;;5062494;28;20044;-72
2021/10/29 06:10:39;;;;;;;1.08;0.90;;;18.70;75.20;;;;;;5058084;28;20099;-73
2021/10/29 06:13:04;;;;;;;4.70;1.20;;;18.70;75.20;;;;;;5068704;28;20017;-72
2021/10/29 06:15:31;;;;;;;2.40;0.77;;;18.70;74.70;;;;;;5056092;28;20546;-72
2021/10/29 06:17:58;;;;;;;6.22;1.75;;;18.60;74.40;;;;;;5045886;28;20021;-73
2021/10/29 06:20:24;;;;;;;2.88;0.80;;;18.50;74.10;;;;;;5063400;28;20548;-72
2021/10/29 06:22:52;;;;;;;3.30;0.90;;;18.40;74.20;;;;;;5054924;28;20104;-73
2021/10/29 06:25:20;;;;;;;3.10;1.10;;;18.40;74.20;;;;;;5068175;28;20024;-72
2021/10/29 06:30:30;;;;;;;4.95;1.20;;;18.20;73.90;;;;;;5064337;28;20074;-72
2021/10/29 06:32:56;;;;;;;6.65;1.02;;;18.20;73.90;;;;;;5038310;28;20013;-72
2021/10/29 06:35:22;;;;;;;5.43;0.95;;;18.10;73.80;;;;;;5061573;28;20099;-73
2021/10/29 06:37:48;;;;;;;4.30;1.17;;;18.10;73.50;;;;;;5067490;28;20025;-72
2021/10/29 06:40:15;;;;;;;4.63;1.35;;;18.00;73.50;;;;;;5055745;28;20025;-72
2021/10/29 06:42:47;;;;;;;4.28;1.05;;;18.00;73.50;;;;;;5065429;28;20510;-72
2021/10/29 07:01:45;;;;;;;8.43;1.30;;;17.80;73.10;;;;;;5056106;28;20509;-73
2021/10/29 07:40:00;;;;;;;3.15;0.93;;;17.40;72.20;;;;;;5055306;28;20028;-73
2021/10/29 07:41:59;;;;;;;3.15;1.10;;;17.40;72.00;;;;;;5043796;28;20064;-73
2021/10/29 07:44:28;;;;;;;4.25;1.10;;;17.40;72.00;;;;;;5055271;28;20367;-72
2021/10/29 07:46:55;;;;;;;3.80;0.73;;;17.40;72.00;;;;;;5055294;28;20509;-72
2021/10/29 07:49:26;;;;;;;3.92;0.70;;;17.40;72.00;;;;;;5053693;28;20032;-73
2021/10/29 07:51:52;;;;;;;2.57;0.77;;;17.30;71.90;;;;;;5055264;28;20505;-73
2021/10/29 07:54:18;;;;;;;6.53;1.08;;;17.30;71.90;;;;;;5055114;28;20035;-73
2021/10/29 07:56:44;;;;;;;3.78;1.00;;;17.30;71.80;;;;;;5037544;28;20017;-73
2021/10/29 07:59:10;;;;;;;4.53;0.93;;;17.20;71.60;;;;;;5054802;28;20032;-73
2021/10/29 08:01:36;;;;;;;2.88;0.80;;;17.30;71.70;;;;;;5054883;28;20086;-73
2021/10/29 08:04:01;;;;;;;2.47;0.63;;;17.20;71.60;;;;;;5053681;28;20486;-72
2021/10/29 08:06:27;;;;;;;4.50;1.17;;;17.20;71.60;;;;;;5052984;28;20087;-73
2021/10/29 08:08:53;;;;;;;1.60;0.60;;;17.20;71.50;;;;;;5054830;28;20040;-73
2021/10/29 08:11:19;;;;;;;2.13;0.80;;;17.20;71.50;;;;;;5054663;28;20017;-73
2021/10/29 08:13:45;;;;;;;5.13;1.02;;;17.20;71.50;;;;;;5053576;28;20032;-72
2021/10/29 08:16:10;;;;;;;3.47;0.82;;;17.20;71.40;;;;;;5054708;28;20021;-73
2021/10/29 08:18:43;;;;;;;4.07;1.00;;;17.20;71.30;;;;;;5053243;28;20031;-73
2021/10/29 08:21:10;;;;;;;;;;;17.20;71.30;;;;;;5053854;28;20021;-73
2021/10/29 08:23:36;;;;;;;3.15;1.08;;;17.10;71.10;;;;;;5054537;28;19912;-73
2021/10/29 08:26:02;;;;;;;4.97;1.00;;;17.10;71.40;;;;;;5036803;28;20041;-73
2021/10/29 08:28:27;;;;;;;1.27;0.80;;;17.10;71.30;;;;;;5054413;28;20029;-73
2021/10/29 08:30:53;;;;;;;3.88;0.88;;;17.10;71.30;;;;;;5053196;28;20082;-73
2021/10/29 08:33:19;;;;;;;3.08;0.80;;;17.10;71.30;;;;;;5054040;28;20022;-73
2021/10/29 08:35:44;;;;;;;3.00;1.00;;;17.10;71.20;;;;;;5054218;28;20454;-73
2021/10/29 08:38:10;;;;;;;3.67;0.82;;;17.10;71.10;;;;;;5036880;28;20024;-73
2021/10/29 08:40:36;;;;;;;3.67;0.95;;;17.10;71.10;;;;;;5054191;28;20036;-73
2021/10/29 08:43:01;;;;;;;4.35;0.70;;;17.10;71.10;;;;;;5053072;28;20031;-73
2021/10/29 08:45:27;;;;;;;4.22;0.88;;;17.10;71.00;;;;;;5054101;28;20117;-73
2021/10/29 08:47:54;;;;;;;2.60;0.90;;;17.00;72.00;;;;;;5053825;28;20027;-73
2021/10/29 08:50:19;;;;;;;3.60;0.70;;;17.00;70.90;;;;;;5036271;28;20020;-73
2021/10/29 08:52:46;;;;;;;3.47;1.02;;;17.00;70.90;;;;;;5053070;28;20025;-73
2021/10/29 08:55:12;;;;;;;4.07;1.00;;;17.10;71.00;;;;;;5052721;28;20490;-73
2021/10/29 08:57:39;;;;;;;5.93;1.05;;;17.10;71.00;;;;;;5036024;28;20017;-73
2021/10/29 09:00:12;;;;;;;3.10;0.80;;;17.10;70.90;;;;;;5052666;28;20579;-73
2021/10/29 09:03:11;;;;;;;2.78;0.98;;;17.10;71.00;;;;;;5052428;28;20025;-73
2021/10/29 09:05:58;;;;;;;5.07;1.33;;;17.10;70.70;;;;;;5038025;28;20555;-72
2021/10/29 09:08:32;;;;;;;3.67;1.08;;;17.00;70.80;;;;;;5053392;28;20075;-73
2021/10/29 09:35:29;;;;;;;2.85;0.98;;;17.00;70.80;;;;;;4987461;28;20090;-73
2021/10/29 09:38:05;;;;;;;2.80;0.85;;;17.00;70.70;;;;;;4987953;28;20035;-73
2021/10/29 09:40:41;;;;;;;3.72;0.80;;;17.00;70.70;;;;;;4988513;28;20069;-73
2021/10/29 09:43:15;;;;;;;4.88;1.38;;;17.00;70.70;;;;;;4971016;28;20030;-73
2021/10/29 09:45:50;;;;;;;3.90;0.90;;;17.10;70.70;;;;;;4987973;28;20090;-73
2021/10/29 09:48:42;;;;;;;2.97;0.63;;;17.10;70.70;;;;;;4988192;28;20035;-73
2021/10/29 09:51:10;;;;;;;3.88;1.20;;;17.10;70.70;;;;;;4985071;28;20038;-73
2021/10/29 09:53:40;;;;;;;4.45;1.00;;;17.10;70.70;;;;;;4987820;28;20057;-73
2021/10/29 09:58:46;;;;;;;5.55;1.25;;;17.10;70.70;;;;;;4986840;28;20027;-73
2021/10/29 10:01:12;;;;;;;6.63;1.20;;;17.10;70.70;;;;;;5005589;28;20048;-73
2021/10/29 10:03:39;;;;;;;4.60;0.90;;;17.10;70.70;;;;;;5031528;28;20029;-73
2021/10/29 10:06:04;;;;;;;7.60;1.10;;;17.10;70.60;;;;;;5032769;28;20026;-73
2021/10/29 10:08:31;;;;;;;8.88;1.45;;;17.10;70.50;;;;;;5032968;28;20033;-73
2021/10/29 10:10:58;;;;;;;5.13;1.00;;;17.10;70.40;;;;;;5035044;28;20021;-73
2021/10/29 10:13:24;;;;;;;4.50;1.08;;;17.10;70.40;;;;;;5035023;28;20016;-73
2021/10/29 10:15:51;;;;;;;5.22;1.38;;;17.10;70.40;;;;;;5050893;28;20025;-73
2021/10/29 10:18:18;;;;;;;3.97;0.80;;;17.10;70.40;;;;;;5051423;28;20021;-73
2021/10/29 10:20:44;;;;;;;4.75;1.17;;;17.10;70.40;;;;;;5051482;28;20029;-73
2021/10/29 10:23:13;;;;;;;6.40;1.30;;;17.10;70.30;;;;;;5051238;28;20025;-73
2021/10/29 10:26:05;;;;;;;5.97;1.48;;;17.10;70.30;;;;;;5052232;28;20104;-73
2021/10/29 10:43:22;;;;;;;1.83;0.80;;;17.10;69.80;;;;;;5052332;28;20399;-73
2021/10/29 10:48:23;;;;;;;3.10;1.02;;;17.10;70.10;;;;;;5051265;28;20044;-73
2021/10/29 10:50:51;;;;;;;6.30;1.10;;;17.00;69.90;;;;;;5051152;28;20036;-73
2021/10/29 10:53:30;;;;;;;4.28;1.05;;;17.00;69.80;;;;;;5051053;28;20406;-73
2021/10/29 11:01:21;;;;;;;;;;;17.00;69.70;;;;;;5051442;28;20040;-73
2021/10/29 11:06:51;;;;;;;3.58;0.70;;;17.00;69.80;;;;;;5050753;28;20069;-73
2021/10/29 11:12:22;;;;;;;5.20;1.08;;;17.00;69.20;;;;;;5052097;28;20053;-73
2021/10/29 11:15:05;;;;;;;4.90;0.93;;;16.90;69.50;;;;;;5034283;28;20028;-73
2021/10/29 11:18:13;;;;;;;3.65;1.00;;;17.00;69.20;;;;;;5034199;28;20117;-73
2021/10/29 11:20:40;;;;;;;4.05;1.27;;;17.00;68.90;;;;;;5041198;28;20037;-73
2021/10/29 11:23:10;;;;;;;2.53;0.90;;;16.90;69.20;;;;;;5051862;28;20094;-73
2021/10/29 11:25:58;;;;;;;3.70;0.95;;;16.90;69.10;;;;;;5050487;28;20017;-73
2021/10/29 11:28:27;;;;;;;5.15;1.30;;;17.00;68.60;;;;;;5051455;28;20063;-73
2021/10/29 11:30:55;;;;;;;4.72;0.90;;;16.90;68.80;;;;;;5050632;28;20517;-73
2021/10/29 11:33:20;;;;;;;2.30;1.00;;;17.00;69.20;;;;;;5034188;28;20013;-73
2021/10/29 11:36:17;;;;;;;4.07;1.08;;;17.00;69.00;;;;;;5050476;28;20022;-73
2021/10/29 11:38:46;;;;;;;2.72;0.90;;;17.00;68.60;;;;;;5035862;28;20029;-73
2021/10/29 11:41:24;;;;;;;2.42;0.82;;;17.00;68.90;;;;;;5037811;28;20104;-73
2021/10/29 11:43:50;;;;;;;5.85;1.15;;;17.00;68.70;;;;;;5054086;28;20029;-73
2021/10/29 11:46:16;;;;;;;3.88;1.10;;;17.00;69.00;;;;;;5037677;28;20025;-73
2021/10/29 11:49:06;;;;;;;3.70;0.90;;;17.10;69.00;;;;;;5053900;28;20520;-73
2021/10/29 11:51:32;;;;;;;3.97;0.85;;;17.10;68.90;;;;;;5054648;28;20035;-73
2021/10/29 11:54:15;;;;;;;3.97;0.90;;;17.10;70.00;;;;;;5054051;28;20021;-73
2021/10/29 11:57:00;;;;;;;;;;;17.20;69.10;;;;;;5054167;28;20036;-73
2021/10/29 12:07:38;;;;;;;2.25;0.80;;;17.20;69.00;;;;;;5053549;28;20055;-73
2021/10/29 12:10:06;;;;;;;3.90;1.20;;;17.20;69.00;;;;;;5053232;28;20025;-73
2021/10/29 12:12:39;;;;;;;2.65;0.90;;;17.20;68.70;;;;;;5053591;28;20082;-73
2021/10/29 12:15:17;;;;;;;2.45;0.85;;;17.20;68.90;;;;;;5054782;28;20017;-73
2021/10/29 12:17:55;;;;;;;1.85;0.80;;;17.30;68.80;;;;;;5037447;28;20501;-73
2021/10/29 12:20:37;;;;;;;3.08;0.70;;;17.30;68.80;;;;;;5053667;28;20029;-73
2021/10/29 12:23:10;;;;;;;5.25;0.80;;;17.30;68.70;;;;;;5037718;28;20040;-73
2021/10/29 12:28:24;;;;;;;4.80;1.17;;;17.30;68.50;;;;;;5039138;28;20036;-73
2021/10/29 13:04:17;;;;;;;1.25;0.50;;;17.30;68.10;;;;;;5000351;28;20026;-73
2021/10/29 13:06:53;;;;;;;2.67;0.63;;;17.20;68.10;;;;;;5011562;28;20048;-73
2021/10/29 13:09:26;;;;;;;2.00;0.65;;;17.30;67.90;;;;;;5011430;28;20770;-73
2021/10/29 13:11:55;;;;;;;1.77;0.60;;;17.30;68.00;;;;;;5011569;28;20041;-73
2021/10/29 13:14:28;;;;;;;1.50;0.40;;;17.30;68.20;;;;;;5011844;28;20391;-73
2021/10/29 13:16:55;;;;;;;2.38;0.50;;;17.30;68.20;;;;;;5011762;28;20038;-73
2021/10/29 13:54:09;;;;;;;3.20;0.70;;;17.50;67.50;;;;;;4960559;28;20026;-73
2021/10/29 14:34:50;;;;;;;3.00;1.00;;;17.40;67.20;;;;;;4958191;28;20479;-73
2021/10/29 14:47:41;;;;;;;3.78;0.75;;;17.40;67.10;;;;;;5041581;28;20033;-73
2021/10/29 14:50:18;;;;;;;3.30;0.85;;;17.40;67.10;;;;;;5050733;28;20036;-73
2021/10/29 15:30:10;;;;;;;4.53;1.38;;;17.40;66.60;;;;;;5055549;28;20021;-73
2021/10/29 15:45:46;;;;;;;4.82;1.27;;;17.30;66.40;;;;;;5054357;28;20037;-73
2021/10/29 15:50:38;;;;;;;3.35;1.20;;;17.40;66.30;;;;;;5054018;28;20021;-73
2021/10/29 15:53:04;;;;;;;5.32;1.23;;;17.30;66.30;;;;;;5055039;28;20375;-73
2021/10/29 15:55:38;;;;;;;5.50;1.60;;;17.30;66.20;;;;;;5054038;28;20059;-73
2021/10/29 15:58:14;;;;;;;7.57;1.10;;;17.30;66.20;;;;;;5054047;28;20032;-73
2021/10/29 16:01:01;;;;;;;3.00;1.10;;;17.30;66.20;;;;;;5053953;28;20082;-73
2021/10/29 16:04:06;;;;;;;2.42;0.98;;;17.30;66.20;;;;;;5053808;28;20078;-73
2021/10/29 16:17:16;;;;;;;1.88;0.73;;;17.20;66.20;;;;;;5054217;28;20480;-73
2021/10/29 16:19:45;;;;;;;3.90;1.02;;;17.20;66.20;;;;;;5047676;28;20017;-73
2021/10/29 16:22:25;;;;;;;5.10;1.50;;;17.20;66.20;;;;;;5042355;28;20063;-73
2021/10/29 16:25:15;;;;;;;5.60;1.60;;;17.20;66.10;;;;;;5044033;28;20711;-73
2021/10/29 16:27:55;;;;;;;6.07;1.83;;;17.20;66.00;;;;;;5050920;28;20041;-73
2021/10/29 16:30:26;;;;;;;4.90;1.38;;;17.20;65.90;;;;;;5058599;28;20035;-73
2021/10/29 16:33:05;;;;;;;3.10;1.38;;;17.20;65.90;;;;;;5038183;28;20156;-73
2021/10/29 16:35:34;;;;;;;4.70;1.85;;;17.20;65.90;;;;;;5061288;28;20013;-73
2021/10/29 16:38:04;;;;;;;4.30;1.88;;;17.20;65.70;;;;;;5046004;28;20024;-74
2021/10/29 16:40:30;;;;;;;7.22;2.22;;;17.20;65.70;;;;;;5050170;28;20100;-73
2021/10/29 16:42:55;;;;;;;4.68;2.30;;;17.20;65.70;;;;;;5052789;28;20873;-74
2021/10/29 16:45:22;;;;;;;8.82;2.50;;;17.20;65.80;;;;;;5038160;28;20494;-73
2021/10/29 16:47:47;;;;;;;6.38;2.60;;;17.20;65.70;;;;;;5036717;28;20029;-74
2021/10/29 16:50:14;;;;;;;4.15;2.40;;;17.20;65.90;;;;;;5052520;28;20029;-74
2021/10/29 16:52:39;;;;;;;5.78;2.63;;;17.20;65.60;;;;;;5053583;28;20025;-74
2021/10/29 16:55:07;;;;;;;6.88;2.88;;;17.20;65.60;;;;;;5048320;28;20074;-73
2021/10/29 16:57:33;;;;;;;6.53;2.50;;;17.20;65.50;;;;;;5043108;28;20044;-73
2021/10/29 16:59:58;;;;;;;9.45;3.05;;;17.20;65.60;;;;;;5058889;28;20490;-73
2021/10/29 17:02:24;;;;;;;6.10;2.45;;;17.20;65.50;;;;;;5044143;28;20032;-73
2021/10/29 17:04:52;;;;;;;9.18;3.15;;;17.20;65.50;;;;;;5040648;28;20023;-73
2021/10/29 17:07:17;;;;;;;6.97;2.88;;;17.20;65.50;;;;;;5059792;28;20048;-73
2021/10/29 17:09:43;;;;;;;8.43;3.22;;;17.20;65.50;;;;;;5057698;28;20379;-73
2021/10/29 17:12:09;;;;;;;6.93;3.10;;;17.20;65.40;;;;;;5042700;28;20025;-74
2021/10/29 17:14:34;;;;;;;7.43;2.65;;;17.20;65.50;;;;;;5041933;28;20017;-73
2021/10/29 17:17:00;;;;;;;6.68;2.92;;;17.20;65.50;;;;;;5057635;28;20052;-74
2021/10/29 17:19:26;;;;;;;5.93;3.40;;;17.20;65.50;;;;;;5045311;28;20029;-73
2021/10/29 17:21:51;;;;;;;8.45;3.65;;;17.20;65.60;;;;;;5059306;28;20402;-73
2021/10/29 17:24:18;;;;;;;6.47;4.30;;;17.20;65.70;;;;;;5042879;28;20021;-74
2021/10/29 17:26:43;;;;;;;8.77;4.75;;;17.20;65.70;;;;;;5058833;28;20437;-72
2021/10/29 17:29:10;;;;;;;8.05;3.88;;;17.30;65.70;;;;;;5036544;28;20082;-68
2021/10/29 17:31:36;;;;;;;6.80;4.32;;;17.40;66.50;;;;;;5040641;28;20021;-68
2021/10/29 17:34:02;;;;;;;5.47;3.85;;;17.50;67.00;;;;;;5040432;28;20025;-68
2021/10/29 17:36:29;;;;;;;6.32;3.95;;;17.70;67.00;;;;;;5054835;28;20013;-68
2021/10/29 17:38:54;;;;;;;7.05;4.03;;;17.80;67.30;;;;;;5042255;28;20437;-68
2021/10/29 17:41:20;;;;;;;6.95;3.70;;;17.90;67.50;;;;;;5041735;28;20017;-67
2021/10/29 17:43:45;;;;;;;10.07;4.35;;;18.10;67.60;;;;;;5040423;28;20066;-67
2021/10/29 17:46:11;;;;;;;9.88;4.40;;;18.20;67.30;;;;;;5041957;28;20075;-68
2021/10/29 17:48:37;;;;;;;8.35;4.40;;;18.30;67.30;;;;;;5035748;28;20033;-68
2021/10/29 17:51:03;;;;;;;8.60;4.47;;;18.30;67.10;;;;;;5056751;28;20505;-68
2021/10/29 17:53:32;;;;;;;7.93;4.28;;;18.40;67.30;;;;;;5058085;28;20212;-67
2021/10/29 17:56:01;;;;;;;9.82;4.72;;;18.40;67.30;;;;;;5040834;28;20032;-68
2021/10/29 17:58:27;;;;;;;8.30;4.50;;;18.40;67.40;;;;;;5034416;28;20018;-67
2021/10/29 18:00:54;;;;;;;9.50;5.57;;;18.50;67.50;;;;;;5046902;28;20033;-68
2021/10/29 18:03:22;;;;;;;6.32;4.57;;;18.50;67.70;;;;;;5041659;28;20036;-67